sensor_id;sensor_type;location;lat;lon;timestamp;temperature;humidity
73750;SHT30;62058;48.406;-4.514;2022-07-19T00:00:44;28.45;43.22
73750;SHT30;62058;48.406;-4.514;2022-07-19T00:03:16;28.42;45.59
73750;SHT30;62058;48.406;-4.514;2022-07-19T00:05:46;28.13;44.99
73750;SHT30;62058;48.406;-4.514;2022-07-19T00:08:11;27.90;45.62
73750;SHT30;62058;48.406;-4.514;2022-07-19T00:10:37;27.79;44.60
73750;SHT30;62058;48.406;-4.514;2022-07-19T00:13:02;27.67;45.37
73750;SHT30;62058;48.406;-4.514;2022-07-19T00:15:28;27.39;44.70
73750;SHT30;62058;48.406;-4.514;2022-07-19T00:17:53;27.50;44.12
73750;SHT30;62058;48.406;-4.514;2022-07-19T00:20:21;27.35;44.08
73750;SHT30;62058;48.406;-4.514;2022-07-19T00:22:47;27.30;44.43
73750;SHT30;62058;48.406;-4.514;2022-07-19T00:25:12;27.19;44.02
73750;SHT30;62058;48.406;-4.514;2022-07-19T00:27:38;26.96;45.27
73750;SHT30;62058;48.406;-4.514;2022-07-19T00:30:04;26.96;45.02
73750;SHT30;62058;48.406;-4.514;2022-07-19T00:32:30;26.64;46.08
73750;SHT30;62058;48.406;-4.514;2022-07-19T00:34:55;26.62;45.97
73750;SHT30;62058;48.406;-4.514;2022-07-19T00:37:21;26.55;46.40
73750;SHT30;62058;48.406;-4.514;2022-07-19T00:39:46;26.48;48.26
73750;SHT30;62058;48.406;-4.514;2022-07-19T00:42:12;26.28;49.00
73750;SHT30;62058;48.406;-4.514;2022-07-19T00:44:40;26.14;51.83
73750;SHT30;62058;48.406;-4.514;2022-07-19T00:47:05;25.97;52.80
73750;SHT30;62058;48.406;-4.514;2022-07-19T00:49:31;25.75;55.16
73750;SHT30;62058;48.406;-4.514;2022-07-19T00:51:57;25.52;58.16
73750;SHT30;62058;48.406;-4.514;2022-07-19T00:54:24;25.23;58.38
73750;SHT30;62058;48.406;-4.514;2022-07-19T00:56:51;25.10;59.30
73750;SHT30;62058;48.406;-4.514;2022-07-19T00:59:17;24.96;60.21
73750;SHT30;62058;48.406;-4.514;2022-07-19T01:01:44;24.80;60.75
73750;SHT30;62058;48.406;-4.514;2022-07-19T01:04:10;24.54;62.74
73750;SHT30;62058;48.406;-4.514;2022-07-19T01:06:36;24.49;60.31
73750;SHT30;62058;48.406;-4.514;2022-07-19T01:09:02;24.40;61.22
73750;SHT30;62058;48.406;-4.514;2022-07-19T01:11:28;24.31;62.61
73750;SHT30;62058;48.406;-4.514;2022-07-19T01:13:53;24.19;62.79
73750;SHT30;62058;48.406;-4.514;2022-07-19T01:16:19;24.06;63.05
73750;SHT30;62058;48.406;-4.514;2022-07-19T01:18:44;23.88;63.67
73750;SHT30;62058;48.406;-4.514;2022-07-19T01:21:22;23.68;64.01
73750;SHT30;62058;48.406;-4.514;2022-07-19T01:23:49;23.58;64.90
73750;SHT30;62058;48.406;-4.514;2022-07-19T01:26:15;23.42;64.92
73750;SHT30;62058;48.406;-4.514;2022-07-19T01:28:41;23.32;65.45
73750;SHT30;62058;48.406;-4.514;2022-07-19T01:31:06;23.29;64.91
73750;SHT30;62058;48.406;-4.514;2022-07-19T01:33:38;23.17;66.46
73750;SHT30;62058;48.406;-4.514;2022-07-19T01:36:04;23.18;65.52
73750;SHT30;62058;48.406;-4.514;2022-07-19T01:38:30;23.11;65.91
73750;SHT30;62058;48.406;-4.514;2022-07-19T01:40:57;23.10;66.22
73750;SHT30;62058;48.406;-4.514;2022-07-19T01:43:23;23.01;66.62
73750;SHT30;62058;48.406;-4.514;2022-07-19T01:45:48;22.95;66.86
73750;SHT30;62058;48.406;-4.514;2022-07-19T01:48:14;22.98;66.36
73750;SHT30;62058;48.406;-4.514;2022-07-19T01:50:39;23.11;64.32
73750;SHT30;62058;48.406;-4.514;2022-07-19T01:53:04;23.18;65.15
73750;SHT30;62058;48.406;-4.514;2022-07-19T01:55:30;23.21;64.63
73750;SHT30;62058;48.406;-4.514;2022-07-19T01:57:55;23.14;64.84
73750;SHT30;62058;48.406;-4.514;2022-07-19T02:00:20;23.11;64.26
73750;SHT30;62058;48.406;-4.514;2022-07-19T02:02:46;23.14;64.36
73750;SHT30;62058;48.406;-4.514;2022-07-19T02:05:11;23.17;64.38
73750;SHT30;62058;48.406;-4.514;2022-07-19T02:07:38;23.18;64.03
73750;SHT30;62058;48.406;-4.514;2022-07-19T02:10:04;23.18;64.14
73750;SHT30;62058;48.406;-4.514;2022-07-19T02:12:30;23.27;63.72
73750;SHT30;62058;48.406;-4.514;2022-07-19T02:14:56;23.27;63.65
73750;SHT30;62058;48.406;-4.514;2022-07-19T02:17:21;23.34;63.85
73750;SHT30;62058;48.406;-4.514;2022-07-19T02:19:47;23.24;64.31
73750;SHT30;62058;48.406;-4.514;2022-07-19T02:22:12;23.21;65.27
73750;SHT30;62058;48.406;-4.514;2022-07-19T02:24:37;23.12;64.73
73750;SHT30;62058;48.406;-4.514;2022-07-19T02:27:04;23.11;64.71
73750;SHT30;62058;48.406;-4.514;2022-07-19T02:29:29;23.08;65.83
73750;SHT30;62058;48.406;-4.514;2022-07-19T02:31:55;23.10;66.11
73750;SHT30;62058;48.406;-4.514;2022-07-19T02:34:20;23.17;65.31
73750;SHT30;62058;48.406;-4.514;2022-07-19T02:36:46;23.22;66.11
73750;SHT30;62058;48.406;-4.514;2022-07-19T02:39:11;23.25;65.59
73750;SHT30;62058;48.406;-4.514;2022-07-19T02:41:36;23.27;65.72
73750;SHT30;62058;48.406;-4.514;2022-07-19T02:44:02;23.12;65.56
73750;SHT30;62058;48.406;-4.514;2022-07-19T02:46:27;23.15;65.95
73750;SHT30;62058;48.406;-4.514;2022-07-19T02:48:53;23.12;65.88
73750;SHT30;62058;48.406;-4.514;2022-07-19T02:51:18;23.10;66.35
73750;SHT30;62058;48.406;-4.514;2022-07-19T02:53:44;23.10;65.75
73750;SHT30;62058;48.406;-4.514;2022-07-19T02:56:09;23.00;66.09
73750;SHT30;62058;48.406;-4.514;2022-07-19T02:58:34;23.04;66.44
73750;SHT30;62058;48.406;-4.514;2022-07-19T03:01:00;23.04;65.97
73750;SHT30;62058;48.406;-4.514;2022-07-19T03:03:25;23.04;66.53
73750;SHT30;62058;48.406;-4.514;2022-07-19T03:06:10;23.14;66.49
73750;SHT30;62058;48.406;-4.514;2022-07-19T03:08:35;23.04;67.02
73750;SHT30;62058;48.406;-4.514;2022-07-19T03:11:01;23.03;66.50
73750;SHT30;62058;48.406;-4.514;2022-07-19T03:13:26;23.01;66.50
73750;SHT30;62058;48.406;-4.514;2022-07-19T03:15:52;23.05;66.73
73750;SHT30;62058;48.406;-4.514;2022-07-19T03:18:17;23.07;66.74
73750;SHT30;62058;48.406;-4.514;2022-07-19T03:20:43;23.14;65.73
73750;SHT30;62058;48.406;-4.514;2022-07-19T03:23:08;23.14;65.58
73750;SHT30;62058;48.406;-4.514;2022-07-19T03:25:33;23.12;66.05
73750;SHT30;62058;48.406;-4.514;2022-07-19T03:27:59;23.10;65.56
73750;SHT30;62058;48.406;-4.514;2022-07-19T03:30:24;23.03;66.41
73750;SHT30;62058;48.406;-4.514;2022-07-19T03:32:49;22.98;66.34
73750;SHT30;62058;48.406;-4.514;2022-07-19T03:35:15;23.08;65.72
73750;SHT30;62058;48.406;-4.514;2022-07-19T03:37:40;22.95;70.27
73750;SHT30;62058;48.406;-4.514;2022-07-19T03:40:06;22.68;75.72
73750;SHT30;62058;48.406;-4.514;2022-07-19T03:42:32;22.63;74.34
73750;SHT30;62058;48.406;-4.514;2022-07-19T03:44:57;22.66;73.67
73750;SHT30;62058;48.406;-4.514;2022-07-19T03:47:22;22.70;73.58
73750;SHT30;62058;48.406;-4.514;2022-07-19T03:49:48;22.73;72.49
73750;SHT30;62058;48.406;-4.514;2022-07-19T03:52:14;22.80;69.61
73750;SHT30;62058;48.406;-4.514;2022-07-19T03:54:40;22.81;72.10
73750;SHT30;62058;48.406;-4.514;2022-07-19T03:57:05;22.81;71.71
73750;SHT30;62058;48.406;-4.514;2022-07-19T03:59:31;22.87;70.91
73750;SHT30;62058;48.406;-4.514;2022-07-19T04:01:56;22.77;70.14
73750;SHT30;62058;48.406;-4.514;2022-07-19T04:04:21;22.47;71.00
73750;SHT30;62058;48.406;-4.514;2022-07-19T04:06:47;22.50;71.08
73750;SHT30;62058;48.406;-4.514;2022-07-19T04:09:12;22.49;70.20
73750;SHT30;62058;48.406;-4.514;2022-07-19T04:11:38;22.52;69.75
73750;SHT30;62058;48.406;-4.514;2022-07-19T04:14:03;22.46;70.08
73750;SHT30;62058;48.406;-4.514;2022-07-19T04:16:28;22.33;70.57
73750;SHT30;62058;48.406;-4.514;2022-07-19T04:18:54;22.35;70.63
73750;SHT30;62058;48.406;-4.514;2022-07-19T04:21:19;22.33;72.04
73750;SHT30;62058;48.406;-4.514;2022-07-19T04:23:45;22.42;71.90
73750;SHT30;62058;48.406;-4.514;2022-07-19T04:26:10;22.30;72.52
73750;SHT30;62058;48.406;-4.514;2022-07-19T04:28:36;22.09;76.59
73750;SHT30;62058;48.406;-4.514;2022-07-19T04:31:01;21.81;77.46
73750;SHT30;62058;48.406;-4.514;2022-07-19T04:33:27;21.24;88.26
73750;SHT30;62058;48.406;-4.514;2022-07-19T04:35:52;20.84;90.56
73750;SHT30;62058;48.406;-4.514;2022-07-19T04:38:19;20.73;92.38
73750;SHT30;62058;48.406;-4.514;2022-07-19T04:40:45;20.79;93.04
73750;SHT30;62058;48.406;-4.514;2022-07-19T04:43:10;20.83;91.95
73750;SHT30;62058;48.406;-4.514;2022-07-19T04:45:36;20.81;93.08
73750;SHT30;62058;48.406;-4.514;2022-07-19T04:48:01;20.83;92.75
73750;SHT30;62058;48.406;-4.514;2022-07-19T04:50:27;20.86;93.65
73750;SHT30;62058;48.406;-4.514;2022-07-19T04:52:52;20.89;93.08
73750;SHT30;62058;48.406;-4.514;2022-07-19T04:55:18;20.87;92.88
73750;SHT30;62058;48.406;-4.514;2022-07-19T04:57:43;20.91;93.99
73750;SHT30;62058;48.406;-4.514;2022-07-19T05:00:10;20.91;92.63
73750;SHT30;62058;48.406;-4.514;2022-07-19T05:02:36;20.77;93.36
73750;SHT30;62058;48.406;-4.514;2022-07-19T05:05:03;20.69;92.86
73750;SHT30;62058;48.406;-4.514;2022-07-19T05:07:28;20.67;93.59
73750;SHT30;62058;48.406;-4.514;2022-07-19T05:09:54;20.66;93.45
73750;SHT30;62058;48.406;-4.514;2022-07-19T05:12:19;20.70;94.30
73750;SHT30;62058;48.406;-4.514;2022-07-19T05:14:45;20.73;93.98
73750;SHT30;62058;48.406;-4.514;2022-07-19T05:17:10;20.77;94.48
73750;SHT30;62058;48.406;-4.514;2022-07-19T05:19:35;20.81;94.01
73750;SHT30;62058;48.406;-4.514;2022-07-19T05:22:01;20.86;92.71
73750;SHT30;62058;48.406;-4.514;2022-07-19T05:24:26;20.80;93.02
73750;SHT30;62058;48.406;-4.514;2022-07-19T05:26:52;20.83;93.33
73750;SHT30;62058;48.406;-4.514;2022-07-19T05:29:17;20.83;92.69
73750;SHT30;62058;48.406;-4.514;2022-07-19T05:31:42;20.77;90.91
73750;SHT30;62058;48.406;-4.514;2022-07-19T05:34:08;20.79;93.23
73750;SHT30;62058;48.406;-4.514;2022-07-19T05:36:33;20.81;92.96
73750;SHT30;62058;48.406;-4.514;2022-07-19T05:38:59;20.86;93.56
73750;SHT30;62058;48.406;-4.514;2022-07-19T05:41:24;20.89;93.33
73750;SHT30;62058;48.406;-4.514;2022-07-19T05:43:50;20.87;92.84
73750;SHT30;62058;48.406;-4.514;2022-07-19T05:46:16;20.89;93.15
73750;SHT30;62058;48.406;-4.514;2022-07-19T05:48:44;20.87;92.24
73750;SHT30;62058;48.406;-4.514;2022-07-19T05:51:10;20.91;93.05
73750;SHT30;62058;48.406;-4.514;2022-07-19T05:53:36;20.94;93.32
73750;SHT30;62058;48.406;-4.514;2022-07-19T05:56:02;21.00;93.28
73750;SHT30;62058;48.406;-4.514;2022-07-19T05:58:28;21.04;92.78
73750;SHT30;62058;48.406;-4.514;2022-07-19T06:00:53;21.07;92.55
73750;SHT30;62058;48.406;-4.514;2022-07-19T06:03:37;21.18;93.20
73750;SHT30;62058;48.406;-4.514;2022-07-19T06:06:03;21.18;92.94
73750;SHT30;62058;48.406;-4.514;2022-07-19T06:08:28;21.23;92.85
73750;SHT30;62058;48.406;-4.514;2022-07-19T06:10:54;21.23;92.74
73750;SHT30;62058;48.406;-4.514;2022-07-19T06:13:20;21.31;93.27
73750;SHT30;62058;48.406;-4.514;2022-07-19T06:15:45;21.35;93.05
73750;SHT30;62058;48.406;-4.514;2022-07-19T06:18:11;21.45;92.21
73750;SHT30;62058;48.406;-4.514;2022-07-19T06:20:36;21.50;91.01
73750;SHT30;62058;48.406;-4.514;2022-07-19T06:23:02;21.54;92.61
73750;SHT30;62058;48.406;-4.514;2022-07-19T06:25:27;21.62;90.66
73750;SHT30;62058;48.406;-4.514;2022-07-19T06:27:52;21.74;93.42
73750;SHT30;62058;48.406;-4.514;2022-07-19T06:30:18;21.71;83.35
73750;SHT30;62058;48.406;-4.514;2022-07-19T06:32:43;21.72;88.78
73750;SHT30;62058;48.406;-4.514;2022-07-19T06:35:09;21.72;89.72
73750;SHT30;62058;48.406;-4.514;2022-07-19T06:37:34;21.77;87.19
73750;SHT30;62058;48.406;-4.514;2022-07-19T06:40:00;21.74;86.74
73750;SHT30;62058;48.406;-4.514;2022-07-19T06:42:25;21.77;91.21
73750;SHT30;62058;48.406;-4.514;2022-07-19T06:44:51;21.79;91.14
73750;SHT30;62058;48.406;-4.514;2022-07-19T06:47:16;21.81;91.45
73750;SHT30;62058;48.406;-4.514;2022-07-19T06:49:42;21.72;84.00
73750;SHT30;62058;48.406;-4.514;2022-07-19T06:52:08;21.71;84.43
73750;SHT30;62058;48.406;-4.514;2022-07-19T06:54:33;21.71;88.89
73750;SHT30;62058;48.406;-4.514;2022-07-19T06:56:58;21.77;91.31
73750;SHT30;62058;48.406;-4.514;2022-07-19T06:59:24;21.66;88.77
73750;SHT30;62058;48.406;-4.514;2022-07-19T07:01:49;21.62;89.42
73750;SHT30;62058;48.406;-4.514;2022-07-19T07:04:15;21.52;84.02
73750;SHT30;62058;48.406;-4.514;2022-07-19T07:06:40;21.52;83.98
73750;SHT30;62058;48.406;-4.514;2022-07-19T07:09:05;21.44;82.39
73750;SHT30;62058;48.406;-4.514;2022-07-19T07:11:31;21.34;84.02
73750;SHT30;62058;48.406;-4.514;2022-07-19T07:13:56;21.31;82.01
73750;SHT30;62058;48.406;-4.514;2022-07-19T07:16:22;21.30;79.70
73750;SHT30;62058;48.406;-4.514;2022-07-19T07:18:47;21.32;87.79
73750;SHT30;62058;48.406;-4.514;2022-07-19T07:21:13;21.31;81.21
73750;SHT30;62058;48.406;-4.514;2022-07-19T07:23:38;21.58;83.35
73750;SHT30;62058;48.406;-4.514;2022-07-19T07:26:04;21.82;78.73
73750;SHT30;62058;48.406;-4.514;2022-07-19T07:28:29;21.91;75.67
73750;SHT30;62058;48.406;-4.514;2022-07-19T07:30:54;22.01;74.38
73750;SHT30;62058;48.406;-4.514;2022-07-19T07:33:21;22.16;89.15
73750;SHT30;62058;48.406;-4.514;2022-07-19T07:35:47;22.20;85.29
73750;SHT30;62058;48.406;-4.514;2022-07-19T07:38:12;22.09;74.80
73750;SHT30;62058;48.406;-4.514;2022-07-19T07:40:38;22.01;73.94
73750;SHT30;62058;48.406;-4.514;2022-07-19T07:43:03;22.12;82.19
73750;SHT30;62058;48.406;-4.514;2022-07-19T07:45:29;22.09;74.69
73750;SHT30;62058;48.406;-4.514;2022-07-19T07:47:55;22.10;73.93
73750;SHT30;62058;48.406;-4.514;2022-07-19T07:50:21;22.19;77.17
73750;SHT30;62058;48.406;-4.514;2022-07-19T07:52:46;22.28;86.96
73750;SHT30;62058;48.406;-4.514;2022-07-19T07:55:12;22.20;74.45
73750;SHT30;62058;48.406;-4.514;2022-07-19T07:57:37;22.26;84.04
73750;SHT30;62058;48.406;-4.514;2022-07-19T08:00:04;22.32;85.44
73750;SHT30;62058;48.406;-4.514;2022-07-19T08:02:31;22.33;81.88
73750;SHT30;62058;48.406;-4.514;2022-07-19T08:04:56;22.39;86.62
73750;SHT30;62058;48.406;-4.514;2022-07-19T08:07:21;22.43;85.60
73750;SHT30;62058;48.406;-4.514;2022-07-19T08:09:47;22.46;85.32
73750;SHT30;62058;48.406;-4.514;2022-07-19T08:12:12;22.54;84.19
73750;SHT30;62058;48.406;-4.514;2022-07-19T08:14:38;22.54;80.25
73750;SHT30;62058;48.406;-4.514;2022-07-19T08:17:03;22.68;84.05
73750;SHT30;62058;48.406;-4.514;2022-07-19T08:19:28;22.78;82.47
73750;SHT30;62058;48.406;-4.514;2022-07-19T08:21:54;22.80;82.08
73750;SHT30;62058;48.406;-4.514;2022-07-19T08:24:19;22.73;76.45
73750;SHT30;62058;48.406;-4.514;2022-07-19T08:26:44;22.80;76.06
73750;SHT30;62058;48.406;-4.514;2022-07-19T08:29:10;22.95;84.64
73750;SHT30;62058;48.406;-4.514;2022-07-19T08:31:36;22.95;74.84
73750;SHT30;62058;48.406;-4.514;2022-07-19T08:34:01;23.01;76.02
73750;SHT30;62058;48.406;-4.514;2022-07-19T08:36:27;23.12;79.48
73750;SHT30;62058;48.406;-4.514;2022-07-19T08:38:52;23.22;74.93
73750;SHT30;62058;48.406;-4.514;2022-07-19T08:41:19;23.38;80.09
73750;SHT30;62058;48.406;-4.514;2022-07-19T08:43:48;23.45;78.66
73750;SHT30;62058;48.406;-4.514;2022-07-19T08:46:14;23.48;72.63
73750;SHT30;62058;48.406;-4.514;2022-07-19T08:48:39;23.62;80.91
73750;SHT30;62058;48.406;-4.514;2022-07-19T08:51:07;23.68;77.99
73750;SHT30;62058;48.406;-4.514;2022-07-19T08:53:33;23.83;80.67
73750;SHT30;62058;48.406;-4.514;2022-07-19T08:55:59;23.85;80.80
73750;SHT30;62058;48.406;-4.514;2022-07-19T08:58:25;23.52;72.10
73750;SHT30;62058;48.406;-4.514;2022-07-19T09:00:51;23.41;79.02
73750;SHT30;62058;48.406;-4.514;2022-07-19T09:03:16;23.37;72.99
73750;SHT30;62058;48.406;-4.514;2022-07-19T09:05:42;23.14;73.28
73750;SHT30;62058;48.406;-4.514;2022-07-19T09:08:10;23.21;76.61
73750;SHT30;62058;48.406;-4.514;2022-07-19T09:10:38;23.15;72.52
73750;SHT30;62058;48.406;-4.514;2022-07-19T09:15:40;23.49;79.65
73750;SHT30;62058;48.406;-4.514;2022-07-19T09:18:10;23.41;74.42
73750;SHT30;62058;48.406;-4.514;2022-07-19T09:20:36;23.48;71.98
73750;SHT30;62058;48.406;-4.514;2022-07-19T09:23:02;23.45;76.63
73750;SHT30;62058;48.406;-4.514;2022-07-19T09:25:34;23.39;72.25
73750;SHT30;62058;48.406;-4.514;2022-07-19T09:28:00;23.52;75.16
73750;SHT30;62058;48.406;-4.514;2022-07-19T09:30:37;23.73;70.94
73750;SHT30;62058;48.406;-4.514;2022-07-19T09:35:49;23.58;72.78
73750;SHT30;62058;48.406;-4.514;2022-07-19T09:40:41;23.49;72.61
73750;SHT30;62058;48.406;-4.514;2022-07-19T09:43:06;23.42;71.62
73750;SHT30;62058;48.406;-4.514;2022-07-19T09:45:32;23.37;71.85
73750;SHT30;62058;48.406;-4.514;2022-07-19T09:47:58;23.32;70.77
73750;SHT30;62058;48.406;-4.514;2022-07-19T09:50:26;23.44;76.15
73750;SHT30;62058;48.406;-4.514;2022-07-19T09:52:51;23.21;71.16
73750;SHT30;62058;48.406;-4.514;2022-07-19T09:55:19;23.15;71.83
73750;SHT30;62058;48.406;-4.514;2022-07-19T09:57:47;23.14;71.22
73750;SHT30;62058;48.406;-4.514;2022-07-19T10:00:15;23.21;71.91
73750;SHT30;62058;48.406;-4.514;2022-07-19T10:02:43;23.37;81.27
73750;SHT30;62058;48.406;-4.514;2022-07-19T10:05:09;23.31;77.77
73750;SHT30;62058;48.406;-4.514;2022-07-19T10:07:36;23.15;75.84
73750;SHT30;62058;48.406;-4.514;2022-07-19T10:10:10;22.86;72.47
73750;SHT30;62058;48.406;-4.514;2022-07-19T10:12:37;22.74;78.29
73750;SHT30;62058;48.406;-4.514;2022-07-19T10:15:06;22.30;73.74
73750;SHT30;62058;48.406;-4.514;2022-07-19T10:17:37;22.20;77.32
73750;SHT30;62058;48.406;-4.514;2022-07-19T10:20:05;22.33;76.33
73750;SHT30;62058;48.406;-4.514;2022-07-19T10:22:32;21.95;74.24
73750;SHT30;62058;48.406;-4.514;2022-07-19T10:25:00;21.96;74.78
73750;SHT30;62058;48.406;-4.514;2022-07-19T10:32:28;21.92;75.20
73750;SHT30;62058;48.406;-4.514;2022-07-19T10:37:48;21.99;76.29
73750;SHT30;62058;48.406;-4.514;2022-07-19T10:40:16;22.12;78.65
73750;SHT30;62058;48.406;-4.514;2022-07-19T10:43:10;22.05;75.09
73750;SHT30;62058;48.406;-4.514;2022-07-19T10:45:37;21.98;78.94
73750;SHT30;62058;48.406;-4.514;2022-07-19T10:48:04;21.92;78.88
73750;SHT30;62058;48.406;-4.514;2022-07-19T10:50:51;21.88;78.86
73750;SHT30;62058;48.406;-4.514;2022-07-19T10:56:20;21.72;74.31
73750;SHT30;62058;48.406;-4.514;2022-07-19T11:01:19;21.89;76.24
73750;SHT30;62058;48.406;-4.514;2022-07-19T11:03:49;21.98;76.90
73750;SHT30;62058;48.406;-4.514;2022-07-19T11:06:20;21.86;74.56
73750;SHT30;62058;48.406;-4.514;2022-07-19T11:08:46;21.96;77.56
73750;SHT30;62058;48.406;-4.514;2022-07-19T11:11:16;21.93;72.82
73750;SHT30;62058;48.406;-4.514;2022-07-19T11:13:48;22.19;76.06
73750;SHT30;62058;48.406;-4.514;2022-07-19T11:16:13;22.30;70.72
73750;SHT30;62058;48.406;-4.514;2022-07-19T11:18:39;22.52;76.85
73750;SHT30;62058;48.406;-4.514;2022-07-19T11:21:05;22.71;76.67
73750;SHT30;62058;48.406;-4.514;2022-07-19T11:23:33;22.71;70.89
73750;SHT30;62058;48.406;-4.514;2022-07-19T11:28:35;22.77;69.16
73750;SHT30;62058;48.406;-4.514;2022-07-19T11:33:41;22.94;75.17
73750;SHT30;62058;48.406;-4.514;2022-07-19T11:36:07;22.84;67.40
73750;SHT30;62058;48.406;-4.514;2022-07-19T11:38:44;22.84;67.34
73750;SHT30;62058;48.406;-4.514;2022-07-19T11:41:20;22.83;69.51
73750;SHT30;62058;48.406;-4.514;2022-07-19T11:43:52;22.77;66.92
73750;SHT30;62058;48.406;-4.514;2022-07-19T11:46:20;22.98;73.60
73750;SHT30;62058;48.406;-4.514;2022-07-19T11:48:48;22.98;72.18
73750;SHT30;62058;48.406;-4.514;2022-07-19T11:51:13;22.88;66.96
73750;SHT30;62058;48.406;-4.514;2022-07-19T11:53:40;23.14;71.96
73750;SHT30;62058;48.406;-4.514;2022-07-19T11:56:16;23.27;74.85
73750;SHT30;62058;48.406;-4.514;2022-07-19T11:58:43;23.29;72.35
73750;SHT30;62058;48.406;-4.514;2022-07-19T12:01:09;23.27;65.72
73750;SHT30;62058;48.406;-4.514;2022-07-19T12:03:35;23.39;67.22
73750;SHT30;62058;48.406;-4.514;2022-07-19T12:06:05;23.55;72.93
73750;SHT30;62058;48.406;-4.514;2022-07-19T12:13:42;23.27;66.74
73750;SHT30;62058;48.406;-4.514;2022-07-19T12:16:09;23.32;68.96
73750;SHT30;62058;48.406;-4.514;2022-07-19T12:21:52;23.37;72.83
73750;SHT30;62058;48.406;-4.514;2022-07-19T12:24:21;23.31;66.25
73750;SHT30;62058;48.406;-4.514;2022-07-19T12:26:56;23.31;75.16
73750;SHT30;62058;48.406;-4.514;2022-07-19T12:31:48;23.41;67.03
73750;SHT30;62058;48.406;-4.514;2022-07-19T12:34:15;23.38;70.25
73750;SHT30;62058;48.406;-4.514;2022-07-19T12:36:41;23.15;66.63
73750;SHT30;62058;48.406;-4.514;2022-07-19T12:39:20;23.38;69.17
73750;SHT30;62058;48.406;-4.514;2022-07-19T12:42:12;23.32;68.37
73750;SHT30;62058;48.406;-4.514;2022-07-19T12:44:41;23.31;66.39
73750;SHT30;62058;48.406;-4.514;2022-07-19T12:47:07;23.52;72.23
73750;SHT30;62058;48.406;-4.514;2022-07-19T12:49:47;23.65;66.24
73750;SHT30;62058;48.406;-4.514;2022-07-19T12:52:13;23.76;73.53
73750;SHT30;62058;48.406;-4.514;2022-07-19T12:54:39;23.89;70.17
73750;SHT30;62058;48.406;-4.514;2022-07-19T12:57:05;23.92;72.21
73750;SHT30;62058;48.406;-4.514;2022-07-19T12:59:30;24.06;71.91
73750;SHT30;62058;48.406;-4.514;2022-07-19T13:02:05;24.09;72.02
73750;SHT30;62058;48.406;-4.514;2022-07-19T13:04:31;24.14;63.83
73750;SHT30;62058;48.406;-4.514;2022-07-19T13:06:56;24.27;66.96
73750;SHT30;62058;48.406;-4.514;2022-07-19T13:09:21;24.49;73.89
73750;SHT30;62058;48.406;-4.514;2022-07-19T13:11:47;24.81;73.70
73750;SHT30;62058;48.406;-4.514;2022-07-19T13:14:13;25.18;61.89
73750;SHT30;62058;48.406;-4.514;2022-07-19T13:16:38;25.72;68.53
73750;SHT30;62058;48.406;-4.514;2022-07-19T13:19:04;26.34;76.88
73750;SHT30;62058;48.406;-4.514;2022-07-19T13:21:30;26.88;60.51
73750;SHT30;62058;48.406;-4.514;2022-07-19T13:23:55;27.25;64.91
73750;SHT30;62058;48.406;-4.514;2022-07-19T13:26:20;27.47;70.34
73750;SHT30;62058;48.406;-4.514;2022-07-19T13:28:46;27.67;65.52
73750;SHT30;62058;48.406;-4.514;2022-07-19T13:31:11;28.03;64.10
73750;SHT30;62058;48.406;-4.514;2022-07-19T13:33:37;28.25;61.09
73750;SHT30;62058;48.406;-4.514;2022-07-19T13:36:03;28.37;62.40
73750;SHT30;62058;48.406;-4.514;2022-07-19T13:38:28;28.75;58.11
73750;SHT30;62058;48.406;-4.514;2022-07-19T13:40:54;28.83;61.73
73750;SHT30;62058;48.406;-4.514;2022-07-19T13:43:19;29.07;52.34
73750;SHT30;62058;48.406;-4.514;2022-07-19T13:45:44;28.85;53.56
73750;SHT30;62058;48.406;-4.514;2022-07-19T13:48:10;28.28;62.14
73750;SHT30;62058;48.406;-4.514;2022-07-19T13:50:36;28.28;67.45
73750;SHT30;62058;48.406;-4.514;2022-07-19T13:53:02;28.79;52.22
73750;SHT30;62058;48.406;-4.514;2022-07-19T13:55:27;29.53;52.15
73750;SHT30;62058;48.406;-4.514;2022-07-19T13:57:53;30.08;52.77
73750;SHT30;62058;48.406;-4.514;2022-07-19T14:00:18;30.38;55.16
73750;SHT30;62058;48.406;-4.514;2022-07-19T14:02:46;30.38;56.71
73750;SHT30;62058;48.406;-4.514;2022-07-19T14:05:12;30.62;64.98
73750;SHT30;62058;48.406;-4.514;2022-07-19T14:07:37;31.24;64.18
73750;SHT30;62058;48.406;-4.514;2022-07-19T14:10:04;31.29;44.61
73750;SHT30;62058;48.406;-4.514;2022-07-19T14:12:29;31.67;44.95
73750;SHT30;62058;48.406;-4.514;2022-07-19T14:14:55;31.96;59.58
73750;SHT30;62058;48.406;-4.514;2022-07-19T14:17:20;32.40;63.09
73750;SHT30;62058;48.406;-4.514;2022-07-19T14:19:46;31.95;51.16
73750;SHT30;62058;48.406;-4.514;2022-07-19T14:22:11;31.57;52.63
73750;SHT30;62058;48.406;-4.514;2022-07-19T14:24:37;30.89;48.43
73750;SHT30;62058;48.406;-4.514;2022-07-19T14:27:02;31.34;48.95
73750;SHT30;62058;48.406;-4.514;2022-07-19T14:29:28;31.61;57.19
73750;SHT30;62058;48.406;-4.514;2022-07-19T14:31:54;30.92;44.54
73750;SHT30;62058;48.406;-4.514;2022-07-19T14:34:19;30.73;46.82
73750;SHT30;62058;48.406;-4.514;2022-07-19T14:36:45;30.21;48.12
73750;SHT30;62058;48.406;-4.514;2022-07-19T14:39:10;30.49;59.16
73750;SHT30;62058;48.406;-4.514;2022-07-19T14:41:36;30.42;55.99
73750;SHT30;62058;48.406;-4.514;2022-07-19T14:44:02;31.73;43.56
73750;SHT30;62058;48.406;-4.514;2022-07-19T14:46:28;32.48;42.06
73750;SHT30;62058;48.406;-4.514;2022-07-19T14:48:53;33.26;61.46
73750;SHT30;62058;48.406;-4.514;2022-07-19T14:51:18;34.28;57.35
73750;SHT30;62058;48.406;-4.514;2022-07-19T14:53:44;34.18;41.75
73750;SHT30;62058;48.406;-4.514;2022-07-19T14:56:09;33.28;52.94
73750;SHT30;62058;48.406;-4.514;2022-07-19T14:58:35;32.66;40.44
73750;SHT30;62058;48.406;-4.514;2022-07-19T15:01:03;31.84;45.51
73750;SHT30;62058;48.406;-4.514;2022-07-19T15:03:29;31.55;52.15
73750;SHT30;62058;48.406;-4.514;2022-07-19T15:05:54;32.82;53.07
73750;SHT30;62058;48.406;-4.514;2022-07-19T15:08:19;34.26;45.15
73750;SHT30;62058;48.406;-4.514;2022-07-19T15:10:45;35.23;38.94
73750;SHT30;62058;48.406;-4.514;2022-07-19T15:13:10;35.37;37.03
73750;SHT30;62058;48.406;-4.514;2022-07-19T15:15:36;34.38;36.78
73750;SHT30;62058;48.406;-4.514;2022-07-19T15:18:01;33.51;48.02
73750;SHT30;62058;48.406;-4.514;2022-07-19T15:20:27;33.00;42.67
73750;SHT30;62058;48.406;-4.514;2022-07-19T15:22:52;33.40;46.85
73750;SHT30;62058;48.406;-4.514;2022-07-19T15:25:18;32.99;38.98
73750;SHT30;62058;48.406;-4.514;2022-07-19T15:27:49;31.84;47.62
73750;SHT30;62058;48.406;-4.514;2022-07-19T15:30:16;31.33;52.63
73750;SHT30;62058;48.406;-4.514;2022-07-19T15:32:42;30.65;49.91
73750;SHT30;62058;48.406;-4.514;2022-07-19T15:35:08;30.38;56.74
73750;SHT30;62058;48.406;-4.514;2022-07-19T15:37:33;30.75;45.86
73750;SHT30;62058;48.406;-4.514;2022-07-19T15:39:59;31.70;52.58
73750;SHT30;62058;48.406;-4.514;2022-07-19T15:42:24;32.33;55.45
73750;SHT30;62058;48.406;-4.514;2022-07-19T15:44:50;32.62;42.36
73750;SHT30;62058;48.406;-4.514;2022-07-19T15:47:15;32.86;56.83